Time;durP1;ratioP1;P1;durP2;ratioP2;P2;SDS_P1;SDS_P2;PMS_P1;PMS_P2;Temp;Humidity;BMP_temperature;BMP_pressure;BME280_temperature;BME280_humidity;BME280_pressure;Samples;Min_cycle;Max_cycle;Signal;HPM_P1;HPM_P2
2022/12/21 00:25:05;;;;;;;24.67;14.70;;;;;;;0.74;100.00;99766.44;1753285;81;21510;-71
2022/12/21 02:18:31;;;;;;;52.98;28.45;;;;;;;-89.86;100.00;99766.44;1753198;81;21239;-68
2022/12/21 02:25:41;;;;;;;31.25;18.48;;;;;;;0.74;100.00;99766.44;1753076;81;20873;-68
2022/12/21 02:45:45;;;;;;;30.97;17.15;;;;;;;-146.14;100.00;121243.23;1753103;81;20873;-68
2022/12/21 02:49:05;;;;;;;28.87;17.37;;;;;;;-146.14;100.00;121243.23;1752995;81;20909;-67
2022/12/21 02:51:41;;;;;;;34.40;20.32;;;;;;;19.52;100.00;78142.61;1753420;81;20968;-69
2022/12/21 02:54:23;;;;;;;31.07;18.57;;;;;;;-146.14;100.00;121243.23;1753035;81;21901;-72
2022/12/21 02:56:51;;;;;;;30.37;18.70;;;;;;;0.74;100.00;121243.23;1753066;81;20920;-70
2022/12/21 02:59:27;;;;;;;30.75;18.57;;;;;;;-146.13;0.00;121243.64;1753036;81;20920;-70
2022/12/21 03:02:11;;;;;;;28.80;15.80;;;;;;;-144.83;0.00;-21105.12;1752693;81;20957;-70
2022/12/21 03:05:31;;;;;;;27.85;16.35;;;;;;;-144.81;100.00;121243.77;1753255;81;21015;-68
2022/12/21 03:08:48;;;;;;;30.52;16.27;;;;;;;0.74;100.00;121243.23;1752578;81;21172;-70
2022/12/21 03:12:11;;;;;;;29.30;17.20;;;;;;;19.52;0.00;78142.61;1725627;82;20921;-70
2022/12/21 03:16:04;;;;;;;33.10;17.77;;;;;;;-89.86;0.00;121243.64;1738034;82;21036;-68
2022/12/21 03:19:11;;;;;;;28.62;16.75;;;;;;;-146.13;0.00;99766.44;1752824;82;21455;-70
2022/12/21 03:21:55;;;;;;;28.90;17.12;;;;;;;-89.86;0.00;121243.64;1753079;82;21481;-70
2022/12/21 03:24:26;;;;;;;31.42;18.30;;;;;;;-146.13;100.00;99766.44;1753220;81;21285;-70
2022/12/21 03:27:29;;;;;;;35.68;21.87;;;;;;;-89.86;0.00;78142.61;1753255;81;20956;-68
2022/12/21 03:30:07;;;;;;;45.40;28.87;;;;;;;-89.86;100.00;121243.23;1753153;82;20889;-70
2022/12/21 03:33:04;;;;;;;38.80;21.15;;;;;;;-146.13;0.00;121243.64;1753201;81;20940;-68
2022/12/21 03:48:53;;;;;;;25.43;17.48;;;;;;;0.74;100.00;99766.44;1753086;82;20936;-67
2022/12/21 03:51:55;;;;;;;113.95;46.80;;;;;;;-89.86;0.00;121243.64;1740293;82;21333;-69
2022/12/21 03:55:02;;;;;;;77.72;36.70;;;;;;;-146.13;0.00;81340.47;1753289;81;20889;-68
2022/12/21 03:57:32;;;;;;;118.55;50.60;;;;;;;-146.14;100.00;121243.23;1752443;81;20960;-69
2022/12/21 04:00:01;;;;;;;106.22;46.63;;;;;;;0.74;100.00;121243.23;1752925;82;21529;-69
2022/12/21 04:02:43;;;;;;;78.57;40.08;;;;;;;0.74;0.00;99766.44;1752999;82;20905;-70
2022/12/21 04:05:30;;;;;;;34.78;20.10;;;;;;;-89.86;0.00;121243.64;1753141;82;21151;-68
2022/12/21 04:07:57;;;;;;;93.65;45.50;;;;;;;-146.14;100.00;121243.23;1752924;81;20935;-69
2022/12/21 04:10:26;;;;;;;61.60;29.92;;;;;;;-146.13;0.00;132202.75;1753205;81;20912;-69
2022/12/21 04:12:53;;;;;;;61.97;34.17;;;;;;;-144.81;96.39;34135.58;1728410;81;21001;-68
2022/12/21 04:16:03;;;;;;;54.45;29.40;;;;;;;-146.14;100.00;121243.23;1753486;81;20987;-67
2022/12/21 04:19:57;;;;;;;50.45;29.82;;;;;;;-146.13;100.00;121243.23;1749230;81;21295;-68
2022/12/21 04:20:57;;;;;;;73.22;40.55;;;;;;;0.74;100.00;99766.44;1749230;81;20916;-68
2022/12/21 04:29:08;;;;;;;36.03;20.45;;;;;;;-89.86;100.00;99766.44;1753241;81;20869;-70
2022/12/21 04:31:35;;;;;;;63.65;32.98;;;;;;;0.74;100.00;99766.44;1753317;81;21159;-69
2022/12/21 04:34:02;;;;;;;58.10;31.50;;;;;;;1.02;100.00;155452.88;1753143;81;21501;-68
2022/12/21 04:40:35;;;;;;;64.97;35.88;;;;;;;1.02;100.00;99614.56;1753198;81;21524;-69
2022/12/21 04:43:26;;;;;;;46.58;25.92;;;;;;;-17.82;100.00;99614.56;1753306;81;20992;-68
2022/12/21 04:46:03;;;;;;;32.17;19.52;;;;;;;-17.82;0.00;121243.64;1753252;81;21157;-69
2022/12/21 04:48:31;;;;;;;66.20;33.78;;;;;;;-146.13;0.00;109725.75;1753175;81;20928;-69
2022/12/21 04:51:08;;;;;;;139.00;95.40;;;;;;;-144.81;100.00;35169.89;1753398;81;20901;-70
2022/12/21 04:56:08;;;;;;;34.98;20.90;;;;;;;-146.13;0.00;121243.64;1753313;81;20865;-68
2022/12/21 04:59:03;;;;;;;34.60;21.52;;;;;;;-146.14;100.00;100822.09;1753077;81;20877;-68
2022/12/21 05:02:29;;;;;;;78.07;48.52;;;;;;;-146.14;100.00;121243.23;1753326;81;21190;-69
2022/12/21 05:08:59;;;;;;;34.63;17.92;;;;;;;-146.14;100.00;100075.05;1753257;81;20929;-70
2022/12/21 05:11:49;;;;;;;81.85;42.85;;;;;;;174.98;100.00;121243.64;1753127;81;20885;-69
2022/12/21 05:14:15;;;;;;;118.65;58.28;;;;;;;-146.13;0.00;99614.56;1753427;81;20873;-70
2022/12/21 05:16:52;;;;;;;79.50;43.17;;;;;;;-146.14;100.00;121243.23;1753451;81;21493;-70
2022/12/21 05:19:20;;;;;;;54.35;29.37;;;;;;;1.02;100.00;99614.56;1753170;81;21498;-70
2022/12/21 05:22:09;;;;;;;92.90;48.40;;;;;;;-146.14;100.00;121243.23;1753009;81;20838;-69
2022/12/21 05:24:36;;;;;;;119.80;50.50;;;;;;;-145.24;0.00;77951.90;1773202;81;20910;-70
2022/12/21 05:28:03;;;;;;;203.32;81.05;;;;;;;22.80;0.00;121243.64;1773020;81;20911;-71
2022/12/21 05:30:36;;;;;;;231.95;91.85;;;;;;;-146.13;0.00;109725.75;1773107;81;20970;-70
2022/12/21 05:33:03;;;;;;;213.60;88.42;;;;;;;1.18;100.00;99591.02;1772917;80;21202;-69
2022/12/21 05:35:31;;;;;;;222.25;86.40;;;;;;;-146.14;100.00;121243.23;1772855;81;21006;-69
2022/12/21 05:38:38;;;;;;;219.93;84.30;;;;;;;-93.79;100.00;99600.17;1772877;81;20911;-72
2022/12/21 05:41:05;;;;;;;208.47;86.30;;;;;;;1.22;100.00;99600.17;1773030;81;20883;-70
2022/12/21 05:45:13;;;;;;;189.28;79.77;;;;;;;45.09;0.00;121243.64;1773009;80;20899;-66
2022/12/21 05:47:40;;;;;;;85.83;40.03;;;;;;;-146.13;100.00;77941.64;1772866;80;21156;-69
2022/12/21 05:54:45;;;;;;;71.72;33.80;;;;;;;45.09;0.00;121243.64;1773055;81;20995;-67
2022/12/21 05:58:05;;;;;;;207.12;71.00;;;;;;;-146.13;0.00;109725.75;1773074;81;20864;-67
2022/12/21 06:01:57;;;;;;;95.57;42.23;;;;;;;-144.81;100.00;121243.23;1772930;80;20904;-67
2022/12/21 06:08:10;;;;;;;88.10;40.30;;;;;;;-146.14;100.00;121243.23;1773033;80;21382;-74
2022/12/21 06:14:10;;;;;;;55.33;29.37;;;;;;;-146.14;100.00;121243.23;1772776;81;21801;-69
2022/12/21 06:22:07;;;;;;;43.63;24.60;;;;;;;-146.14;100.00;121243.23;1772873;81;20970;-69
2022/12/21 06:59:38;;;;;;;80.83;38.05;;;;;;;-129.78;100.00;121243.23;1772886;81;20839;-68
2022/12/21 07:02:05;;;;;;;112.92;48.63;;;;;;;-145.23;0.00;77941.64;1772857;81;20843;-70
2022/12/21 07:04:53;;;;;;;111.68;53.83;;;;;;;45.09;0.00;121243.64;1772886;81;20899;-70
2022/12/21 07:30:47;;;;;;;46.68;25.70;;;;;;;-146.14;100.00;121243.23;1772924;80;21249;-67
2022/12/21 07:34:57;;;;;;;36.40;20.82;;;;;;;-146.14;100.00;121243.23;1772469;81;20868;-68
2022/12/21 07:38:13;;;;;;;47.48;32.42;;;;;;;-146.14;100.00;121243.23;1772669;81;20860;-70
2022/12/21 07:41:14;;;;;;;46.10;27.07;;;;;;;-146.13;0.00;-13393.88;1772834;81;20919;-70
2022/12/21 07:45:56;;;;;;;50.50;29.05;;;;;;;-144.81;0.00;99591.67;1773025;80;20970;-67
2022/12/21 07:48:23;;;;;;;50.17;28.45;;;;;;;45.09;0.00;121243.64;1772887;81;21297;-68
2022/12/21 07:50:51;;;;;;;147.13;72.85;;;;;;;-146.13;0.00;109725.75;1773119;80;21542;-71
2022/12/21 07:53:20;;;;;;;48.90;27.42;;;;;;;-144.81;0.00;35563.20;1773124;81;20985;-68
2022/12/21 07:55:47;;;;;;;60.05;33.35;;;;;;;-146.13;0.00;121243.64;1773323;81;21412;-69
2022/12/21 07:58:14;;;;;;;52.65;30.08;;;;;;;-144.83;0.00;129492.09;1743009;81;20867;-70
2022/12/21 08:00:40;;;;;;;49.00;27.25;;;;;;;1.26;100.00;99591.67;1773103;81;21219;-69
2022/12/21 08:03:08;;;;;;;75.37;44.98;;;;;;;4.32;84.72;99609.88;1772921;81;21022;-69
2022/12/21 08:05:35;;;;;;;40.35;27.65;;;;;;;4.55;81.04;99612.52;1772997;81;20971;-70
2022/12/21 08:08:03;;;;;;;39.95;24.63;;;;;;;4.64;78.63;99614.72;1772973;81;20835;-69
2022/12/21 08:10:55;;;;;;;48.60;31.57;;;;;;;4.48;0.00;121243.64;1773133;80;21497;-70
2022/12/21 08:20:18;;;;;;;47.98;29.67;;;;;;;-146.14;100.00;121243.23;1773055;81;21168;-67
2022/12/21 08:22:45;;;;;;;60.30;35.03;;;;;;;4.48;74.28;99616.05;1772924;81;21433;-70
2022/12/21 08:25:12;;;;;;;77.85;44.48;;;;;;;4.07;82.23;99636.34;1773051;81;20844;-70
2022/12/21 08:27:38;;;;;;;36.38;22.42;;;;;;;4.27;85.37;99629.63;1773040;80;21449;-69
2022/12/21 08:30:23;;;;;;;41.25;23.87;;;;;;;80.49;100.00;199701.25;1772878;80;20895;-68
2022/12/21 08:32:50;;;;;;;45.15;26.42;;;;;;;4.02;78.27;99626.34;1773058;80;21500;-69
2022/12/21 08:35:18;;;;;;;52.30;30.80;;;;;;;4.16;78.97;99631.59;1772986;81;20947;-67
2022/12/21 08:37:46;;;;;;;65.75;39.35;;;;;;;4.13;79.82;99636.00;1772984;80;20859;-69
2022/12/21 08:40:15;;;;;;;54.03;29.82;;;;;;;-146.14;100.00;121243.23;1773033;80;20931;-69
2022/12/21 08:42:42;;;;;;;95.28;42.40;;;;;;;4.12;81.29;99631.73;1773109;81;20911;-69
2022/12/21 08:45:10;;;;;;;120.67;50.33;;;;;;;50.33;0.00;77639.20;1773198;81;21477;-70
2022/12/21 08:57:14;;;;;;;104.65;50.08;;;;;;;3.91;77.96;99622.17;1772983;81;27123;-67
2022/12/21 08:59:47;;;;;;;54.60;26.40;;;;;;;-146.14;100.00;121243.23;1772801;81;20919;-70
2022/12/21 09:02:14;;;;;;;66.30;34.23;;;;;;;-145.48;0.00;77639.20;1772873;81;20914;-69
2022/12/21 09:04:40;;;;;;;66.25;38.60;;;;;;;50.33;0.00;121243.64;1772978;80;20915;-69
2022/12/21 09:07:07;;;;;;;159.80;78.28;;;;;;;-146.13;0.00;80815.48;1772811;81;21155;-69
2022/12/21 09:09:34;;;;;;;131.00;59.85;;;;;;;50.33;0.00;77639.20;1772921;81;20971;-69
2022/12/21 09:12:01;;;;;;;80.40;37.63;;;;;;;50.33;0.00;121243.64;1772822;81;20907;-69
2022/12/21 09:14:47;;;;;;;162.72;71.35;;;;;;;-146.13;0.00;144120.58;1772900;81;20919;-70
2022/12/21 09:17:13;;;;;;;114.50;60.03;;;;;;;-59.75;100.00;77639.87;1773011;81;20872;-70
2022/12/21 09:19:40;;;;;;;95.03;47.05;;;;;;;50.33;0.00;77639.20;1772919;81;21265;-69
2022/12/21 09:22:07;;;;;;;94.87;48.70;;;;;;;50.33;0.00;77639.20;1772727;80;21560;-69
2022/12/21 09:24:38;;;;;;;80.55;38.67;;;;;;;50.33;0.00;121243.64;1772870;81;20906;-69
2022/12/21 09:27:05;;;;;;;69.62;36.25;;;;;;;-146.13;0.00;80815.48;1772880;81;20906;-70
2022/12/21 09:29:32;;;;;;;50.60;25.35;;;;;;;50.33;0.00;121243.64;1773017;80;20899;-70
2022/12/21 09:32:00;;;;;;;50.40;27.15;;;;;;;-146.14;0.00;144120.58;1773240;80;21832;-70
2022/12/21 09:36:38;;;;;;;127.38;38.05;;;;;;;-59.75;100.00;100076.34;1773002;81;20831;-66
2022/12/21 09:40:21;;;;;;;93.00;39.03;;;;;;;63.44;100.00;121243.64;1772879;81;20868;-65
2022/12/21 09:43:06;;;;;;;59.33;29.77;;;;;;;-146.13;0.00;99918.50;1772769;80;21464;-69
2022/12/21 09:46:13;;;;;;;45.98;27.50;;;;;;;50.33;0.00;121243.64;1769113;81;20863;-68
2022/12/21 09:48:56;;;;;;;43.33;21.52;;;;;;;-146.14;100.00;121243.23;1773116;81;21252;-70
2022/12/21 09:51:32;;;;;;;45.58;25.62;;;;;;;3.91;77.96;99622.17;1773117;81;20899;-69
2022/12/21 09:54:12;;;;;;;87.17;41.90;;;;;;;3.91;77.96;99622.17;1772890;81;20946;-70
2022/12/21 09:57:17;;;;;;;53.10;31.40;;;;;;;-146.14;100.00;121243.23;1772205;80;20970;-67
2022/12/21 10:02:39;;;;;;;44.77;25.60;;;;;;;4.67;69.10;99553.65;1772925;81;20911;-67
2022/12/21 10:06:51;;;;;;;41.33;21.60;;;;;;;-146.14;100.00;121243.23;1772833;81;21246;-68
2022/12/21 10:10:02;;;;;;;44.25;26.93;;;;;;;4.67;69.10;99553.65;1772731;81;21382;-70
2022/12/21 10:21:12;;;;;;;74.32;33.35;;;;;;;-105.57;0.00;77496.70;1772943;80;20902;-69
2022/12/21 10:23:45;;;;;;;52.08;24.75;;;;;;;4.61;76.00;99549.20;1772874;81;21286;-68
2022/12/21 10:26:18;;;;;;;83.12;47.70;;;;;;;4.25;76.31;99537.34;1772757;81;20915;-69
2022/12/21 10:29:22;;;;;;;69.58;38.35;;;;;;;4.22;80.10;99540.44;1772815;81;20907;-69
2022/12/21 10:31:48;;;;;;;35.65;20.72;;;;;;;4.21;80.18;99540.11;1771218;81;20883;-70
2022/12/21 10:34:19;;;;;;;60.78;32.78;;;;;;;4.39;83.10;99534.11;1772804;81;20868;-70
2022/12/21 10:36:48;;;;;;;84.72;40.20;;;;;;;4.57;78.07;99520.08;1773062;81;21163;-70
2022/12/21 10:39:16;;;;;;;95.25;49.63;;;;;;;4.81;72.69;99519.29;1772873;81;21401;-70
2022/12/21 10:41:47;;;;;;;;;;;;;;;4.88;72.78;99517.39;1775638;80;20927;-70
2022/12/21 10:44:14;;;;;;;40.38;24.18;;;;;;;4.58;67.89;99504.42;1773030;80;20088;-69
2022/12/21 10:46:41;;;;;;;39.78;23.45;;;;;;;4.43;65.92;99502.88;1772854;81;20959;-70
2022/12/21 10:49:18;;;;;;;39.13;24.40;;;;;;;4.50;68.50;99498.33;1772708;81;21162;-69
2022/12/21 10:51:45;;;;;;;39.50;23.87;;;;;;;4.79;65.75;99502.73;1773098;81;20832;-70
2022/12/21 10:54:12;;;;;;;39.25;24.37;;;;;;;4.94;63.82;99502.40;1772751;81;20895;-69
2022/12/21 10:56:45;;;;;;;48.10;28.55;;;;;;;4.86;64.92;99507.48;1772970;81;21558;-69
2022/12/21 10:59:24;;;;;;;48.42;28.77;;;;;;;4.80;63.88;99503.05;1772813;81;21469;-70
2022/12/21 11:01:51;;;;;;;53.90;30.08;;;;;;;4.80;63.49;99495.56;1773115;80;21272;-70
2022/12/21 11:04:28;;;;;;;46.90;29.02;;;;;;;4.85;65.10;99500.55;1772773;81;21069;-69
2022/12/21 11:07:08;;;;;;;45.48;28.75;;;;;;;4.83;63.67;99498.61;1773079;81;20924;-70
2022/12/21 11:09:38;;;;;;;49.77;28.25;;;;;;;4.84;64.60;99501.56;1768578;81;20913;-69
2022/12/21 11:12:22;;;;;;;46.83;29.55;;;;;;;4.79;62.72;99497.41;1772807;80;20900;-69
2022/12/21 11:14:51;;;;;;;49.60;26.77;;;;;;;4.88;65.41;99493.98;1772725;80;21187;-69
2022/12/21 11:17:27;;;;;;;42.25;26.55;;;;;;;4.84;62.89;99494.91;1773062;81;20986;-69
2022/12/21 11:20:11;;;;;;;50.20;26.20;;;;;;;4.84;61.12;99497.57;1772873;81;20828;-69
2022/12/21 11:22:40;;;;;;;44.80;28.50;;;;;;;4.85;61.64;99501.88;1772657;81;20962;-69
2022/12/21 11:25:17;;;;;;;45.88;27.15;;;;;;;5.04;64.71;99504.04;1773055;81;21398;-69
2022/12/21 11:27:45;;;;;;;47.73;26.48;;;;;;;5.02;65.02;99498.16;1773268;81;21752;-70
2022/12/21 11:30:31;;;;;;;51.73;28.32;;;;;;;4.94;61.83;99493.09;1772955;81;20875;-69
2022/12/21 11:32:59;;;;;;;80.97;41.35;;;;;;;4.96;64.37;99491.03;1772847;80;20997;-70
2022/12/21 11:35:30;;;;;;;48.13;26.03;;;;;;;4.96;64.06;99517.62;1773122;80;20843;-70
2022/12/21 11:38:13;;;;;;;64.37;35.50;;;;;;;4.98;65.35;99507.59;1772761;80;20832;-69
2022/12/21 11:40:56;;;;;;;54.50;31.02;;;;;;;5.03;69.38;99502.43;1772980;81;21253;-69
2022/12/21 11:43:22;;;;;;;43.28;29.02;;;;;;;4.92;65.80;99503.13;1772382;81;20816;-69
2022/12/21 11:46:14;;;;;;;47.17;30.37;;;;;;;4.84;64.75;99495.44;1772952;80;20950;-68
2022/12/21 11:49:02;;;;;;;55.67;31.90;;;;;;;4.84;64.06;99494.10;1773058;81;20967;-69
2022/12/21 11:52:09;;;;;;;58.13;33.18;;;;;;;4.82;65.45;99479.69;1773299;80;20947;-70
2022/12/21 11:54:56;;;;;;;62.30;37.83;;;;;;;4.81;65.68;99482.58;1773167;81;21253;-70
2022/12/21 11:57:49;;;;;;;64.60;38.10;;;;;;;4.73;66.90;99483.67;1772921;81;20902;-69
2022/12/21 12:00:22;;;;;;;63.28;37.25;;;;;;;4.72;65.62;99485.48;1772880;81;20895;-69
2022/12/21 12:03:06;;;;;;;65.52;38.63;;;;;;;4.80;65.06;99487.09;1772729;81;20927;-69
2022/12/21 12:05:41;;;;;;;70.70;41.18;;;;;;;4.81;66.11;99479.92;1772665;81;20894;-69
2022/12/21 12:08:45;;;;;;;75.42;41.02;;;;;;;4.75;66.14;99473.60;1772982;81;21158;-69
2022/12/21 12:11:28;;;;;;;62.70;36.55;;;;;;;4.74;65.85;99469.33;1772965;81;20903;-69
2022/12/21 12:14:10;;;;;;;74.82;45.35;;;;;;;4.94;65.10;99467.30;1772441;81;20871;-70
2022/12/21 12:17:00;;;;;;;113.68;68.67;;;;;;;5.27;64.09;99472.83;1772852;81;20887;-70
2022/12/21 12:19:44;;;;;;;81.47;49.03;;;;;;;5.63;63.25;99471.70;1772600;81;20892;-70
2022/12/21 12:22:36;;;;;;;83.47;44.90;;;;;;;5.49;61.83;99468.41;1772926;81;21237;-70
2022/12/21 12:25:29;;;;;;;80.00;38.85;;;;;;;5.18;61.68;99462.17;1770139;81;20852;-70
2022/12/21 12:28:25;;;;;;;69.92;38.17;;;;;;;5.03;60.28;99457.20;1772954;81;20983;-70
2022/12/21 12:31:18;;;;;;;71.17;41.15;;;;;;;5.04;59.57;99458.01;1773061;81;20979;-69
2022/12/21 12:34:13;;;;;;;70.37;39.30;;;;;;;4.97;60.13;99450.61;1773136;81;21382;-69
2022/12/21 12:37:11;;;;;;;65.85;42.30;;;;;;;4.97;60.97;99457.26;1772868;81;21248;-69
2022/12/21 12:39:43;;;;;;;61.30;39.75;;;;;;;4.96;60.67;99448.99;1773113;81;20962;-69
2022/12/21 12:42:30;;;;;;;62.27;36.70;;;;;;;4.83;58.79;99457.91;1772398;81;20939;-69
2022/12/21 12:45:12;;;;;;;69.17;46.05;;;;;;;4.79;58.54;99460.70;1772290;81;20832;-69
2022/12/21 12:47:58;;;;;;;59.83;35.90;;;;;;;4.76;59.09;99464.61;1772899;81;21511;-69
2022/12/21 12:50:36;;;;;;;57.55;36.42;;;;;;;4.77;58.01;99458.77;1772306;81;21122;-68
2022/12/21 12:53:50;;;;;;;59.53;38.00;;;;;;;4.88;59.24;99457.55;1771618;81;20871;-70
2022/12/21 12:56:45;;;;;;;65.45;37.35;;;;;;;4.71;59.08;99455.95;1773083;81;20899;-69
2022/12/21 12:59:35;;;;;;;59.23;36.23;;;;;;;4.82;59.85;99457.60;1773228;81;21528;-70
2022/12/21 13:02:10;;;;;;;48.02;29.65;;;;;;;5.02;59.21;99452.09;1773148;81;21472;-69
2022/12/21 13:05:05;;;;;;;58.83;34.50;;;;;;;5.01;57.63;99457.94;1772864;80;21442;-70
2022/12/21 13:08:01;;;;;;;53.25;30.05;;;;;;;5.12;57.17;99466.53;1772709;81;20828;-68
2022/12/21 13:11:11;;;;;;;44.40;25.85;;;;;;;5.09;57.39;99455.50;1772834;81;20951;-68
2022/12/21 13:13:53;;;;;;;39.33;25.75;;;;;;;4.96;57.91;99450.33;1772361;81;20914;-68
2022/12/21 13:16:31;;;;;;;39.40;25.23;;;;;;;4.75;57.07;99444.35;1772618;81;20975;-68
2022/12/21 13:19:04;;;;;;;;;;;;;;;4.65;58.42;99451.49;1770101;81;21254;-69
2022/12/21 13:21:32;;;;;;;45.25;28.02;;;;;;;4.61;58.96;99441.02;1773008;80;20095;-68
2022/12/21 13:24:18;;;;;;;49.30;30.82;;;;;;;4.56;58.91;99453.31;1773054;80;20914;-68
2022/12/21 13:26:52;;;;;;;58.60;31.40;;;;;;;4.54;59.54;99439.45;1772665;80;20927;-68
2022/12/21 13:29:40;;;;;;;65.00;39.63;;;;;;;4.50;60.99;99432.41;1772565;81;20915;-68
2022/12/21 13:32:14;;;;;;;103.07;58.63;;;;;;;4.37;62.35;99421.37;1772956;81;21249;-68
2022/12/21 13:34:55;;;;;;;86.50;48.20;;;;;;;4.21;64.29;99412.07;1772963;80;20911;-69
2022/12/21 13:37:22;;;;;;;73.65;45.48;;;;;;;4.10;64.85;99406.14;1772535;81;20978;-70
2022/12/21 13:40:19;;;;;;;81.65;48.25;;;;;;;4.15;65.48;99410.29;1773042;81;21022;-70
2022/12/21 13:43:11;;;;;;;51.13;31.42;;;;;;;4.18;65.00;99411.70;1775923;80;20864;-70
2022/12/21 13:46:00;;;;;;;76.95;49.58;;;;;;;3.98;66.04;99409.19;1772874;81;21191;-68
2022/12/21 13:48:49;;;;;;;68.78;42.55;;;;;;;3.91;66.88;99403.91;1772733;81;21362;-69
2022/12/21 13:51:49;;;;;;;81.80;45.20;;;;;;;3.83;67.85;99406.30;1772809;80;20962;-69
2022/12/21 13:54:45;;;;;;;65.67;36.28;;;;;;;3.71;67.78;99416.49;1751707;81;20905;-70
2022/12/21 13:57:18;;;;;;;137.30;84.97;;;;;;;3.67;67.08;99419.26;1751586;82;20908;-69
2022/12/21 14:00:22;;;;;;;65.92;37.03;;;;;;;3.70;68.80;99430.77;1751108;82;21342;-69
2022/12/21 14:03:24;;;;;;;53.40;32.00;;;;;;;3.57;69.33;99431.13;1751290;82;20976;-68
2022/12/21 14:06:09;;;;;;;54.33;32.28;;;;;;;3.57;69.33;99417.05;1751502;82;20988;-68
2022/12/21 14:08:59;;;;;;;57.58;31.97;;;;;;;3.63;69.03;99420.20;1751372;82;20916;-68
2022/12/21 14:11:59;;;;;;;55.90;31.62;;;;;;;3.55;69.72;99408.48;1751673;82;20950;-71
2022/12/21 14:14:57;;;;;;;74.85;40.00;;;;;;;3.49;71.30;99409.34;1751638;82;21365;-69
2022/12/21 14:17:34;;;;;;;88.35;39.85;;;;;;;3.49;72.41;99400.86;1751316;82;21427;-70
2022/12/21 14:20:08;;;;;;;78.47;45.55;;;;;;;3.42;71.27;99402.21;1750257;82;21505;-70
2022/12/21 14:22:44;;;;;;;83.52;49.08;;;;;;;3.35;74.15;99401.94;1751452;82;20932;-69
2022/12/21 14:25:32;;;;;;;94.42;57.73;;;;;;;3.37;73.80;99406.53;1751739;82;20996;-69
2022/12/21 14:28:19;;;;;;;106.03;60.28;;;;;;;3.37;74.27;99397.25;1753125;81;21492;-69
2022/12/21 14:31:10;;;;;;;130.82;67.20;;;;;;;3.39;74.35;99395.20;1772990;81;20939;-69
2022/12/21 14:33:51;;;;;;;161.70;83.30;;;;;;;3.30;76.12;99391.95;1772818;80;20903;-69
2022/12/21 14:36:24;;;;;;;135.52;69.50;;;;;;;3.24;77.36;99386.70;1771942;81;20961;-69
2022/12/21 14:39:13;;;;;;;143.17;68.97;;;;;;;3.19;78.21;99389.45;1772778;81;20868;-68
2022/12/21 14:41:40;;;;;;;133.93;63.68;;;;;;;3.18;80.21;99383.83;1772759;81;21145;-68
2022/12/21 14:44:21;;;;;;;185.05;89.60;;;;;;;3.15;80.64;99380.80;1772838;81;20907;-68
2022/12/21 14:47:12;;;;;;;149.18;74.30;;;;;;;3.24;80.31;99382.72;1772858;80;21409;-68
2022/12/21 14:49:41;;;;;;;161.97;78.72;;;;;;;3.28;78.98;99382.06;1741101;82;20939;-68
2022/12/21 14:52:19;;;;;;;169.65;87.80;;;;;;;3.16;80.29;99391.70;1741431;82;20916;-68
2022/12/21 14:55:01;;;;;;;174.55;86.32;;;;;;;3.20;79.74;99395.05;1702646;83;21413;-68
2022/12/21 14:57:40;;;;;;;194.72;100.72;;;;;;;3.19;80.06;99398.73;1741027;82;20916;-68
2022/12/21 15:00:21;;;;;;;147.85;75.45;;;;;;;3.18;79.46;99398.42;1744385;82;20880;-69
2022/12/21 15:02:58;;;;;;;143.32;73.28;;;;;;;3.11;80.71;99395.49;1744656;82;20951;-69
2022/12/21 15:05:40;;;;;;;130.90;64.37;;;;;;;3.09;88.79;99393.58;1743760;82;21438;-68
2022/12/21 15:08:15;;;;;;;211.22;118.95;;;;;;;3.13;82.55;99391.61;1741042;82;39130;-68
2022/12/21 15:10:51;;;;;;;239.85;124.40;;;;;;;3.10;82.83;99387.25;1740918;82;20927;-68
2022/12/21 15:13:33;;;;;;;225.97;114.55;;;;;;;3.02;84.71;99384.31;1741206;82;21003;-69
2022/12/21 15:16:17;;;;;;;202.80;102.75;;;;;;;3.06;84.84;99383.37;1741188;82;21556;-69
2022/12/21 15:18:57;;;;;;;312.60;139.37;;;;;;;3.05;85.45;99379.91;1741182;82;20990;-68
2022/12/21 15:21:40;;;;;;;210.48;98.60;;;;;;;3.00;86.44;99370.45;1741057;82;21248;-69
2022/12/21 15:24:15;;;;;;;194.20;96.65;;;;;;;3.01;88.00;99365.43;1741324;82;20895;-68
2022/12/21 15:27:07;;;;;;;173.28;93.30;;;;;;;2.99;88.15;99367.50;1741117;82;20895;-69
2022/12/21 15:29:52;;;;;;;155.25;81.67;;;;;;;2.89;89.66;99366.61;1740990;82;20911;-68
2022/12/21 15:32:40;;;;;;;156.82;79.03;;;;;;;2.88;90.09;99353.55;1741172;82;21029;-69
2022/12/21 15:35:19;;;;;;;;;;;;;;;2.92;90.73;99350.28;1743822;82;21130;-68
2022/12/21 15:37:46;;;;;;;119.85;65.37;;;;;;;2.89;91.81;99353.84;1740534;82;20513;-68
2022/12/21 15:40:26;;;;;;;137.55;70.70;;;;;;;2.78;93.02;99352.14;1741106;82;21448;-69
2022/12/21 15:43:18;;;;;;;124.80;66.67;;;;;;;2.19;100.00;99354.37;1718253;82;20873;-69
2022/12/21 15:45:59;;;;;;;145.85;72.08;;;;;;;2.07;100.00;99344.08;1718235;83;20864;-69
2022/12/21 15:48:55;;;;;;;150.38;76.92;;;;;;;2.04;100.00;99343.17;1710759;84;21307;-68
2022/12/21 15:51:29;;;;;;;166.55;85.95;;;;;;;2.02;100.00;99342.55;1710394;84;20971;-69
2022/12/21 15:54:19;;;;;;;172.35;83.17;;;;;;;2.01;100.00;99339.59;1710474;84;20963;-68
2022/12/21 15:56:53;;;;;;;159.75;71.00;;;;;;;2.00;100.00;99341.42;1710727;83;20919;-69
2022/12/21 15:59:23;;;;;;;166.80;85.50;;;;;;;1.99;100.00;99341.12;1710809;84;21515;-69
2022/12/21 16:01:54;;;;;;;161.25;81.12;;;;;;;1.97;100.00;99332.57;1710807;84;21158;-69
2022/12/21 16:04:20;;;;;;;147.85;70.45;;;;;;;1.93;100.00;99330.02;1710527;84;21508;-69
2022/12/21 16:06:53;;;;;;;120.28;57.65;;;;;;;1.88;100.00;99349.14;1710712;84;20880;-69
2022/12/21 16:09:21;;;;;;;106.03;52.80;;;;;;;1.91;100.00;99355.38;1710585;84;21022;-68
2022/12/21 16:11:48;;;;;;;130.00;62.50;;;;;;;1.95;100.00;99345.70;1711008;83;20935;-69
2022/12/21 16:14:30;;;;;;;132.30;65.63;;;;;;;2.22;100.00;99343.88;1710883;84;21245;-69
2022/12/21 16:17:01;;;;;;;121.53;56.00;;;;;;;1.93;100.00;99340.09;1710600;84;20935;-70
2022/12/21 16:19:34;;;;;;;108.05;54.40;;;;;;;1.97;100.00;99353.75;1713425;83;21497;-69
2022/12/21 16:22:06;;;;;;;98.92;52.13;;;;;;;1.97;100.00;99344.48;1739126;82;20999;-69
2022/12/21 16:24:33;;;;;;;94.97;50.78;;;;;;;1.99;100.00;99341.12;1738159;82;20927;-68
2022/12/21 16:27:02;;;;;;;106.00;60.55;;;;;;;1.97;100.00;99343.67;1739144;82;21935;-70
2022/12/21 16:29:30;;;;;;;88.60;54.53;;;;;;;1.90;100.00;99345.80;1739188;82;21435;-70
2022/12/21 16:31:58;;;;;;;101.47;54.67;;;;;;;1.93;100.00;99345.38;1739282;82;20928;-69
2022/12/21 16:34:36;;;;;;;99.58;53.50;;;;;;;-130.43;0.00;77665.86;1739379;82;21518;-67
2022/12/21 16:37:27;;;;;;;79.55;46.15;;;;;;;1.89;100.00;99335.43;1738958;82;21002;-70
2022/12/21 16:40:07;;;;;;;70.60;39.38;;;;;;;1.83;100.00;99330.41;1738717;82;21274;-69
2022/12/21 16:42:38;;;;;;;70.05;38.58;;;;;;;-144.82;100.00;60420.02;1739126;82;20919;-70
2022/12/21 16:45:30;;;;;;;61.68;38.08;;;;;;;-146.14;0.00;121243.23;1739495;82;20935;-68
2022/12/21 16:48:20;;;;;;;79.37;41.95;;;;;;;-146.14;100.00;121243.23;1738980;82;21462;-68
2022/12/21 16:50:52;;;;;;;113.70;51.98;;;;;;;1.83;100.00;99330.41;1739340;82;20896;-70
2022/12/21 16:53:41;;;;;;;129.93;63.83;;;;;;;1.91;100.00;99331.56;1739050;82;21240;-68
2022/12/21 16:56:26;;;;;;;271.73;129.20;;;;;;;2.33;100.00;99325.54;1739003;82;21019;-69
2022/12/21 16:59:00;;;;;;;142.98;62.53;;;;;;;2.30;100.00;99331.73;1738752;82;21493;-69
2022/12/21 17:01:38;;;;;;;117.33;57.98;;;;;;;2.28;100.00;99337.26;1739030;82;20928;-70
2022/12/21 17:04:21;;;;;;;115.37;55.00;;;;;;;2.33;100.00;99325.54;1738817;82;20856;-69
2022/12/21 17:07:05;;;;;;;104.97;56.65;;;;;;;2.19;100.00;99326.56;1739267;82;21792;-68
2022/12/21 17:10:02;;;;;;;104.17;54.85;;;;;;;2.07;100.00;99324.22;1739086;82;20939;-68
2022/12/21 17:12:36;;;;;;;145.82;73.00;;;;;;;2.12;100.00;99320.45;1739172;82;21011;-67
2022/12/21 17:15:26;;;;;;;143.32;73.80;;;;;;;2.16;100.00;99324.33;1739205;82;20912;-69